sensor_id;sensor_type;location;lat;lon;timestamp;pressure;altitude;pressure_sealevel;temperature
69857;BMP280;57147;53.582;10.112;2022-12-10T00:04:25;100750.09;;;-0.35
69857;BMP280;57147;53.582;10.112;2022-12-10T00:09:29;100754.06;;;-0.33
69857;BMP280;57147;53.582;10.112;2022-12-10T00:14:30;100759.75;;;-0.36
69857;BMP280;57147;53.582;10.112;2022-12-10T00:19:30;100764.16;;;-0.36
69857;BMP280;57147;53.582;10.112;2022-12-10T00:24:34;100767.28;;;-0.28
69857;BMP280;57147;53.582;10.112;2022-12-10T00:29:34;100764.88;;;-0.29
69857;BMP280;57147;53.582;10.112;2022-12-10T00:34:36;100762.94;;;-0.34
69857;BMP280;57147;53.582;10.112;2022-12-10T00:39:39;100768.88;;;-0.27
69857;BMP280;57147;53.582;10.112;2022-12-10T00:44:39;100765.75;;;-0.35
69857;BMP280;57147;53.582;10.112;2022-12-10T00:49:41;100758.63;;;-0.53
69857;BMP280;57147;53.582;10.112;2022-12-10T00:54:45;100767.56;;;-0.36
69857;BMP280;57147;53.582;10.112;2022-12-10T00:59:46;100779.00;;;-0.37
69857;BMP280;57147;53.582;10.112;2022-12-10T01:04:46;100781.44;;;-0.42
69857;BMP280;57147;53.582;10.112;2022-12-10T01:09:49;100774.53;;;-0.30
69857;BMP280;57147;53.582;10.112;2022-12-10T01:14:50;100793.06;;;-0.38
69857;BMP280;57147;53.582;10.112;2022-12-10T01:19:51;100788.06;;;-0.39
69857;BMP280;57147;53.582;10.112;2022-12-10T01:24:54;100780.66;;;-0.42
69857;BMP280;57147;53.582;10.112;2022-12-10T01:29:55;100788.38;;;-0.61
69857;BMP280;57147;53.582;10.112;2022-12-10T01:34:55;100790.72;;;-0.53
69857;BMP280;57147;53.582;10.112;2022-12-10T01:39:58;100793.38;;;-0.59
69857;BMP280;57147;53.582;10.112;2022-12-10T01:45:08;100789.22;;;-0.73
69857;BMP280;57147;53.582;10.112;2022-12-10T01:50:09;100794.38;;;-0.60
69857;BMP280;57147;53.582;10.112;2022-12-10T01:55:44;100797.56;;;-0.58
69857;BMP280;57147;53.582;10.112;2022-12-10T02:00:58;100799.44;;;-0.72
69857;BMP280;57147;53.582;10.112;2022-12-10T02:06:06;100796.81;;;-0.65
69857;BMP280;57147;53.582;10.112;2022-12-10T02:11:16;100809.66;;;-0.70
69857;BMP280;57147;53.582;10.112;2022-12-10T02:16:22;100813.22;;;-0.58
69857;BMP280;57147;53.582;10.112;2022-12-10T02:21:30;100815.34;;;-0.42
69857;BMP280;57147;53.582;10.112;2022-12-10T02:26:40;100813.00;;;-0.50
69857;BMP280;57147;53.582;10.112;2022-12-10T02:31:49;100808.19;;;-0.22
69857;BMP280;57147;53.582;10.112;2022-12-10T02:36:53;100816.03;;;-0.22
69857;BMP280;57147;53.582;10.112;2022-12-10T02:41:55;100827.09;;;-0.26
69857;BMP280;57147;53.582;10.112;2022-12-10T02:47:01;100813.50;;;-0.35
69857;BMP280;57147;53.582;10.112;2022-12-10T02:52:07;100827.81;;;-0.44
69857;BMP280;57147;53.582;10.112;2022-12-10T02:57:15;100823.44;;;-0.57
69857;BMP280;57147;53.582;10.112;2022-12-10T03:02:21;100821.22;;;-0.53
69857;BMP280;57147;53.582;10.112;2022-12-10T03:07:32;100826.63;;;-0.48
69857;BMP280;57147;53.582;10.112;2022-12-10T03:12:38;100822.22;;;-0.47
69857;BMP280;57147;53.582;10.112;2022-12-10T03:17:43;100828.47;;;-0.55
69857;BMP280;57147;53.582;10.112;2022-12-10T03:22:47;100826.31;;;-0.71
69857;BMP280;57147;53.582;10.112;2022-12-10T03:27:49;100827.97;;;-0.39
69857;BMP280;57147;53.582;10.112;2022-12-10T03:32:54;100828.72;;;-0.32
69857;BMP280;57147;53.582;10.112;2022-12-10T03:37:55;100831.00;;;-0.10
69857;BMP280;57147;53.582;10.112;2022-12-10T03:42:56;100838.41;;;-0.07
69857;BMP280;57147;53.582;10.112;2022-12-10T03:47:59;100837.31;;;-0.25
69857;BMP280;57147;53.582;10.112;2022-12-10T03:53:00;100841.25;;;-0.47
69857;BMP280;57147;53.582;10.112;2022-12-10T03:58:00;100831.41;;;-0.45
69857;BMP280;57147;53.582;10.112;2022-12-10T04:03:03;100841.44;;;-0.10
69857;BMP280;57147;53.582;10.112;2022-12-10T04:08:04;100832.94;;;-0.31
69857;BMP280;57147;53.582;10.112;2022-12-10T04:13:05;100838.84;;;-0.42
69857;BMP280;57147;53.582;10.112;2022-12-10T04:18:08;100824.25;;;-0.25
69857;BMP280;57147;53.582;10.112;2022-12-10T04:23:08;100829.16;;;-0.35
69857;BMP280;57147;53.582;10.112;2022-12-10T04:28:09;100834.38;;;-0.35
69857;BMP280;57147;53.582;10.112;2022-12-10T04:33:12;100832.69;;;-0.23
69857;BMP280;57147;53.582;10.112;2022-12-10T04:38:13;100826.03;;;-0.18
69857;BMP280;57147;53.582;10.112;2022-12-10T04:43:13;100832.66;;;-0.16
69857;BMP280;57147;53.582;10.112;2022-12-10T04:48:16;100832.25;;;-0.20
69857;BMP280;57147;53.582;10.112;2022-12-10T04:53:17;100823.44;;;-0.18
69857;BMP280;57147;53.582;10.112;2022-12-10T04:58:18;100841.41;;;-0.04
69857;BMP280;57147;53.582;10.112;2022-12-10T05:03:22;100839.56;;;0.03
69857;BMP280;57147;53.582;10.112;2022-12-10T05:08:22;100832.53;;;0.04
69857;BMP280;57147;53.582;10.112;2022-12-10T05:13:23;100824.91;;;0.02
69857;BMP280;57147;53.582;10.112;2022-12-10T05:18:27;100784.53;;;-0.27
69857;BMP280;57147;53.582;10.112;2022-12-10T05:23:28;100830.06;;;-0.23
69857;BMP280;57147;53.582;10.112;2022-12-10T05:28:30;100819.88;;;-0.31
69857;BMP280;57147;53.582;10.112;2022-12-10T05:33:33;100844.47;;;-0.13
69857;BMP280;57147;53.582;10.112;2022-12-10T05:38:34;100846.41;;;-0.02
69857;BMP280;57147;53.582;10.112;2022-12-10T05:43:36;100847.81;;;0.00
69857;BMP280;57147;53.582;10.112;2022-12-10T05:48:39;100851.47;;;-0.07
69857;BMP280;57147;53.582;10.112;2022-12-10T05:53:40;100847.84;;;-0.06
69857;BMP280;57147;53.582;10.112;2022-12-10T05:58:42;100822.84;;;-0.21
69857;BMP280;57147;53.582;10.112;2022-12-10T06:03:46;100832.69;;;-0.23
69857;BMP280;57147;53.582;10.112;2022-12-10T06:08:47;100846.31;;;-0.21
69857;BMP280;57147;53.582;10.112;2022-12-10T06:13:47;100851.56;;;-0.27
69857;BMP280;57147;53.582;10.112;2022-12-10T06:18:51;100856.16;;;-0.23
69857;BMP280;57147;53.582;10.112;2022-12-10T06:23:52;100866.84;;;-0.31
69857;BMP280;57147;53.582;10.112;2022-12-10T06:28:53;100868.06;;;-0.33
69857;BMP280;57147;53.582;10.112;2022-12-10T06:33:56;100870.16;;;-0.48
69857;BMP280;57147;53.582;10.112;2022-12-10T06:38:57;100860.09;;;-0.38
69857;BMP280;57147;53.582;10.112;2022-12-10T06:43:58;100865.50;;;-0.40
69857;BMP280;57147;53.582;10.112;2022-12-10T06:49:01;100870.03;;;-0.29
69857;BMP280;57147;53.582;10.112;2022-12-10T06:54:02;100878.22;;;-0.63
69857;BMP280;57147;53.582;10.112;2022-12-10T06:59:04;100879.69;;;-0.29
69857;BMP280;57147;53.582;10.112;2022-12-10T07:04:08;100880.25;;;-0.21
69857;BMP280;57147;53.582;10.112;2022-12-10T07:09:09;100895.06;;;-0.14
69857;BMP280;57147;53.582;10.112;2022-12-10T07:14:13;100903.69;;;-0.14
69857;BMP280;57147;53.582;10.112;2022-12-10T07:19:16;100902.72;;;-0.20
69857;BMP280;57147;53.582;10.112;2022-12-10T07:24:18;100896.94;;;-0.28
69857;BMP280;57147;53.582;10.112;2022-12-10T07:29:20;100894.16;;;-0.33
69857;BMP280;57147;53.582;10.112;2022-12-10T07:34:24;100925.97;;;-0.69
69857;BMP280;57147;53.582;10.112;2022-12-10T07:39:24;100930.13;;;-1.26
69857;BMP280;57147;53.582;10.112;2022-12-10T07:44:25;100935.50;;;-1.41
69857;BMP280;57147;53.582;10.112;2022-12-10T07:49:28;100889.63;;;-1.42
69857;BMP280;57147;53.582;10.112;2022-12-10T07:54:29;100937.69;;;-1.18
69857;BMP280;57147;53.582;10.112;2022-12-10T07:59:29;100941.31;;;-1.19
69857;BMP280;57147;53.582;10.112;2022-12-10T08:04:33;100945.94;;;-1.34
69857;BMP280;57147;53.582;10.112;2022-12-10T08:09:34;100950.47;;;-0.83
69857;BMP280;57147;53.582;10.112;2022-12-10T08:14:34;100957.69;;;-0.72
69857;BMP280;57147;53.582;10.112;2022-12-10T08:19:37;100943.03;;;-0.73
69857;BMP280;57147;53.582;10.112;2022-12-10T08:24:38;100949.41;;;-0.56
69857;BMP280;57147;53.582;10.112;2022-12-10T08:29:38;100954.41;;;-0.48
69857;BMP280;57147;53.582;10.112;2022-12-10T08:34:45;100962.03;;;-0.46
69857;BMP280;57147;53.582;10.112;2022-12-10T08:39:45;100959.53;;;-0.99
69857;BMP280;57147;53.582;10.112;2022-12-10T08:44:46;100971.72;;;-0.87
69857;BMP280;57147;53.582;10.112;2022-12-10T08:49:49;100975.56;;;-0.89
69857;BMP280;57147;53.582;10.112;2022-12-10T08:54:50;100980.19;;;-0.98
69857;BMP280;57147;53.582;10.112;2022-12-10T08:59:50;100977.75;;;-0.79
69857;BMP280;57147;53.582;10.112;2022-12-10T09:04:53;100972.50;;;-0.66
69857;BMP280;57147;53.582;10.112;2022-12-10T09:09:54;100975.97;;;-1.05
69857;BMP280;57147;53.582;10.112;2022-12-10T09:14:55;100989.81;;;-1.05
69857;BMP280;57147;53.582;10.112;2022-12-10T09:19:58;100995.44;;;-1.34
69857;BMP280;57147;53.582;10.112;2022-12-10T09:24:59;100999.03;;;-1.09
69857;BMP280;57147;53.582;10.112;2022-12-10T09:29:59;101001.78;;;-0.71
69857;BMP280;57147;53.582;10.112;2022-12-10T09:35:03;101015.81;;;-0.45
69857;BMP280;57147;53.582;10.112;2022-12-10T09:40:05;101017.44;;;-0.77
69857;BMP280;57147;53.582;10.112;2022-12-10T09:45:13;101013.06;;;-1.10
69857;BMP280;57147;53.582;10.112;2022-12-10T09:50:21;101003.84;;;-0.93
69857;BMP280;57147;53.582;10.112;2022-12-10T09:55:29;101015.47;;;-1.15
69857;BMP280;57147;53.582;10.112;2022-12-10T10:00:35;101010.00;;;-0.67
69857;BMP280;57147;53.582;10.112;2022-12-10T10:05:41;101004.56;;;-0.46
69857;BMP280;57147;53.582;10.112;2022-12-10T10:10:44;101001.03;;;-0.91
69857;BMP280;57147;53.582;10.112;2022-12-10T10:15:45;101000.78;;;-0.76
69857;BMP280;57147;53.582;10.112;2022-12-10T10:20:48;101000.78;;;-0.63
69857;BMP280;57147;53.582;10.112;2022-12-10T10:25:50;100996.19;;;-0.74
69857;BMP280;57147;53.582;10.112;2022-12-10T10:30:52;100983.41;;;-0.96
69857;BMP280;57147;53.582;10.112;2022-12-10T10:35:57;100997.38;;;-0.70
69857;BMP280;57147;53.582;10.112;2022-12-10T10:40:59;101002.00;;;-0.66
69857;BMP280;57147;53.582;10.112;2022-12-10T10:46:02;100997.75;;;-0.54
69857;BMP280;57147;53.582;10.112;2022-12-10T10:51:18;101000.75;;;-0.37
69857;BMP280;57147;53.582;10.112;2022-12-10T10:56:21;101003.03;;;-0.09
69857;BMP280;57147;53.582;10.112;2022-12-10T11:01:24;101001.91;;;-0.33
69857;BMP280;57147;53.582;10.112;2022-12-10T11:06:28;100998.38;;;0.06
69857;BMP280;57147;53.582;10.112;2022-12-10T11:11:33;100998.16;;;0.08
69857;BMP280;57147;53.582;10.112;2022-12-10T11:16:34;100995.69;;;-0.32
69857;BMP280;57147;53.582;10.112;2022-12-10T11:21:37;100997.44;;;-0.12
69857;BMP280;57147;53.582;10.112;2022-12-10T11:26:50;101000.47;;;0.23
69857;BMP280;57147;53.582;10.112;2022-12-10T11:32:06;100989.81;;;0.24
69857;BMP280;57147;53.582;10.112;2022-12-10T11:37:22;100997.84;;;0.29
69857;BMP280;57147;53.582;10.112;2022-12-10T11:42:33;100984.53;;;0.37
69857;BMP280;57147;53.582;10.112;2022-12-10T11:47:46;101001.19;;;0.05
69857;BMP280;57147;53.582;10.112;2022-12-10T11:53:02;100988.31;;;0.10
69857;BMP280;57147;53.582;10.112;2022-12-10T11:58:20;100987.59;;;-1.08
69857;BMP280;57147;53.582;10.112;2022-12-10T12:03:49;100992.97;;;-0.63
69857;BMP280;57147;53.582;10.112;2022-12-10T12:08:57;100972.34;;;-0.13
69857;BMP280;57147;53.582;10.112;2022-12-10T12:14:06;100988.38;;;-0.03
69857;BMP280;57147;53.582;10.112;2022-12-10T12:19:13;100983.28;;;-0.43
69857;BMP280;57147;53.582;10.112;2022-12-10T12:24:21;100982.47;;;-0.37
69857;BMP280;57147;53.582;10.112;2022-12-10T12:29:26;100986.75;;;0.02
69857;BMP280;57147;53.582;10.112;2022-12-10T12:34:33;100984.09;;;0.09
69857;BMP280;57147;53.582;10.112;2022-12-10T12:39:45;100982.13;;;-0.02
69857;BMP280;57147;53.582;10.112;2022-12-10T12:44:57;100977.09;;;0.03
69857;BMP280;57147;53.582;10.112;2022-12-10T12:50:00;100964.16;;;-0.24
69857;BMP280;57147;53.582;10.112;2022-12-10T12:55:13;100984.69;;;0.11
69857;BMP280;57147;53.582;10.112;2022-12-10T13:00:18;100974.66;;;0.08
69857;BMP280;57147;53.582;10.112;2022-12-10T13:05:21;100982.66;;;0.13
69857;BMP280;57147;53.582;10.112;2022-12-10T13:10:26;100977.00;;;0.16
69857;BMP280;57147;53.582;10.112;2022-12-10T13:15:33;100998.81;;;-0.03
69857;BMP280;57147;53.582;10.112;2022-12-10T13:20:35;100998.34;;;0.13
69857;BMP280;57147;53.582;10.112;2022-12-10T13:25:55;100983.00;;;-0.22
69857;BMP280;57147;53.582;10.112;2022-12-10T13:31:21;101004.25;;;-0.11
69857;BMP280;57147;53.582;10.112;2022-12-10T13:36:26;101008.88;;;-0.13
69857;BMP280;57147;53.582;10.112;2022-12-10T13:41:30;101017.00;;;-0.35
69857;BMP280;57147;53.582;10.112;2022-12-10T13:46:33;101021.84;;;-0.58
69857;BMP280;57147;53.582;10.112;2022-12-10T13:51:50;101026.34;;;-0.21
69857;BMP280;57147;53.582;10.112;2022-12-10T13:57:03;101026.97;;;-0.25
69857;BMP280;57147;53.582;10.112;2022-12-10T14:02:24;101030.00;;;-0.28
69857;BMP280;57147;53.582;10.112;2022-12-10T14:07:28;101042.31;;;-0.62
69857;BMP280;57147;53.582;10.112;2022-12-10T14:12:35;101028.28;;;-0.80
69857;BMP280;57147;53.582;10.112;2022-12-10T14:17:39;101038.69;;;-0.41
69857;BMP280;57147;53.582;10.112;2022-12-10T14:22:46;101028.38;;;-0.23
69857;BMP280;57147;53.582;10.112;2022-12-10T14:27:51;101045.03;;;-0.17
69857;BMP280;57147;53.582;10.112;2022-12-10T14:32:54;101041.81;;;-0.26
69857;BMP280;57147;53.582;10.112;2022-12-10T14:37:57;101043.44;;;-0.25
69857;BMP280;57147;53.582;10.112;2022-12-10T14:43:03;101030.25;;;-0.43
69857;BMP280;57147;53.582;10.112;2022-12-10T14:48:04;101039.06;;;-0.37
69857;BMP280;57147;53.582;10.112;2022-12-10T14:53:08;101034.66;;;-0.50
69857;BMP280;57147;53.582;10.112;2022-12-10T14:58:17;101050.72;;;-0.53
69857;BMP280;57147;53.582;10.112;2022-12-10T15:03:26;101054.34;;;-0.80
69857;BMP280;57147;53.582;10.112;2022-12-10T15:08:28;101050.34;;;-0.83
69857;BMP280;57147;53.582;10.112;2022-12-10T15:13:33;101059.16;;;-0.77
69857;BMP280;57147;53.582;10.112;2022-12-10T15:18:37;101051.94;;;-0.62
69857;BMP280;57147;53.582;10.112;2022-12-10T15:23:38;101065.16;;;-0.83
69857;BMP280;57147;53.582;10.112;2022-12-10T15:28:41;101062.97;;;-0.60
69857;BMP280;57147;53.582;10.112;2022-12-10T15:33:44;101072.41;;;-0.66
69857;BMP280;57147;53.582;10.112;2022-12-10T15:38:46;101067.97;;;-0.52
69857;BMP280;57147;53.582;10.112;2022-12-10T15:43:58;101071.00;;;-0.68
69857;BMP280;57147;53.582;10.112;2022-12-10T15:48:59;101074.81;;;-0.77
69857;BMP280;57147;53.582;10.112;2022-12-10T15:54:00;101079.22;;;-0.71
69857;BMP280;57147;53.582;10.112;2022-12-10T15:59:03;101076.81;;;-0.53
69857;BMP280;57147;53.582;10.112;2022-12-10T16:04:04;101075.19;;;-0.54
69857;BMP280;57147;53.582;10.112;2022-12-10T16:09:04;101080.22;;;-0.66
69857;BMP280;57147;53.582;10.112;2022-12-10T16:14:08;101077.59;;;-0.53
69857;BMP280;57147;53.582;10.112;2022-12-10T16:19:10;101068.56;;;-0.50
69857;BMP280;57147;53.582;10.112;2022-12-10T16:24:11;101083.22;;;-0.75
69857;BMP280;57147;53.582;10.112;2022-12-10T16:29:14;101092.34;;;-1.45
69857;BMP280;57147;53.582;10.112;2022-12-10T16:34:15;101065.81;;;-1.62
69857;BMP280;57147;53.582;10.112;2022-12-10T16:39:15;101079.16;;;-1.37
69857;BMP280;57147;53.582;10.112;2022-12-10T16:44:19;101089.63;;;-1.04
69857;BMP280;57147;53.582;10.112;2022-12-10T16:49:19;101086.66;;;-0.95
69857;BMP280;57147;53.582;10.112;2022-12-10T16:54:20;101069.38;;;-0.82
69857;BMP280;57147;53.582;10.112;2022-12-10T16:59:23;101063.56;;;-0.71
69857;BMP280;57147;53.582;10.112;2022-12-10T17:04:24;101075.59;;;-0.70
69857;BMP280;57147;53.582;10.112;2022-12-10T17:09:25;101082.81;;;-0.46
69857;BMP280;57147;53.582;10.112;2022-12-10T17:14:30;101079.63;;;-0.48
69857;BMP280;57147;53.582;10.112;2022-12-10T17:19:34;101084.84;;;-0.48
69857;BMP280;57147;53.582;10.112;2022-12-10T17:24:35;101086.00;;;-1.10
69857;BMP280;57147;53.582;10.112;2022-12-10T17:29:41;101090.44;;;-1.04
69857;BMP280;57147;53.582;10.112;2022-12-10T17:34:42;101092.06;;;-0.96
69857;BMP280;57147;53.582;10.112;2022-12-10T17:39:43;101080.03;;;-0.97
69857;BMP280;57147;53.582;10.112;2022-12-10T17:44:47;101086.84;;;-0.76
69857;BMP280;57147;53.582;10.112;2022-12-10T17:49:48;101091.06;;;-0.62
69857;BMP280;57147;53.582;10.112;2022-12-10T17:54:49;101084.84;;;-0.74
69857;BMP280;57147;53.582;10.112;2022-12-10T17:59:52;101093.66;;;-0.49
69857;BMP280;57147;53.582;10.112;2022-12-10T18:04:53;101090.44;;;-1.04
69857;BMP280;57147;53.582;10.112;2022-12-10T18:09:54;101088.78;;;-1.31
69857;BMP280;57147;53.582;10.112;2022-12-10T18:14:57;101087.63;;;-0.82
69857;BMP280;57147;53.582;10.112;2022-12-10T18:19:58;101095.84;;;-0.79
69857;BMP280;57147;53.582;10.112;2022-12-10T18:24:58;101093.66;;;-0.69
69857;BMP280;57147;53.582;10.112;2022-12-10T18:30:02;101097.66;;;-0.60
69857;BMP280;57147;53.582;10.112;2022-12-10T18:35:04;101088.22;;;-0.80
69857;BMP280;57147;53.582;10.112;2022-12-10T18:40:06;101092.44;;;-0.79
69857;BMP280;57147;53.582;10.112;2022-12-10T18:45:10;101088.44;;;-0.69
69857;BMP280;57147;53.582;10.112;2022-12-10T18:50:18;101071.59;;;-0.73
69857;BMP280;57147;53.582;10.112;2022-12-10T18:55:21;101092.84;;;-0.69
69857;BMP280;57147;53.582;10.112;2022-12-10T19:00:26;101096.84;;;-0.87
69857;BMP280;57147;53.582;10.112;2022-12-10T19:05:27;101091.66;;;-0.73
69857;BMP280;57147;53.582;10.112;2022-12-10T19:10:30;101093.84;;;-0.64
69857;BMP280;57147;53.582;10.112;2022-12-10T19:15:33;101094.47;;;-0.68
69857;BMP280;57147;53.582;10.112;2022-12-10T19:20:33;101101.06;;;-0.72
69857;BMP280;57147;53.582;10.112;2022-12-10T19:25:34;101111.13;;;-0.49
69857;BMP280;57147;53.582;10.112;2022-12-10T19:30:38;101108.09;;;-0.66
69857;BMP280;57147;53.582;10.112;2022-12-10T19:35:38;101121.75;;;-0.91
69857;BMP280;57147;53.582;10.112;2022-12-10T19:40:40;101095.25;;;-0.88
69857;BMP280;57147;53.582;10.112;2022-12-10T19:45:43;101108.50;;;-0.56
69857;BMP280;57147;53.582;10.112;2022-12-10T19:50:44;101104.88;;;-0.68
69857;BMP280;57147;53.582;10.112;2022-12-10T19:55:44;101082.00;;;-0.86
69857;BMP280;57147;53.582;10.112;2022-12-10T20:00:48;101084.84;;;-0.94
69857;BMP280;57147;53.582;10.112;2022-12-10T20:05:48;101102.66;;;-0.84
69857;BMP280;57147;53.582;10.112;2022-12-10T20:10:50;101111.69;;;-0.80
69857;BMP280;57147;53.582;10.112;2022-12-10T20:15:53;101121.50;;;-1.09
69857;BMP280;57147;53.582;10.112;2022-12-10T20:20:54;101120.06;;;-1.31
69857;BMP280;57147;53.582;10.112;2022-12-10T20:25:55;101114.81;;;-1.38
69857;BMP280;57147;53.582;10.112;2022-12-10T20:30:59;101120.06;;;-1.18
69857;BMP280;57147;53.582;10.112;2022-12-10T20:36:00;101124.91;;;-1.02
69857;BMP280;57147;53.582;10.112;2022-12-10T20:41:01;101122.13;;;-0.80
69857;BMP280;57147;53.582;10.112;2022-12-10T20:46:08;101124.53;;;-0.79
69857;BMP280;57147;53.582;10.112;2022-12-10T20:51:12;101110.09;;;-1.01
69857;BMP280;57147;53.582;10.112;2022-12-10T20:56:14;101128.94;;;-0.79
69857;BMP280;57147;53.582;10.112;2022-12-10T21:01:19;101113.31;;;-0.73
69857;BMP280;57147;53.582;10.112;2022-12-10T21:06:22;101118.13;;;-0.90
69857;BMP280;57147;53.582;10.112;2022-12-10T21:11:24;101111.69;;;-1.07
69857;BMP280;57147;53.582;10.112;2022-12-10T21:16:27;101121.53;;;-0.96
69857;BMP280;57147;53.582;10.112;2022-12-10T21:21:28;101118.13;;;-0.96
69857;BMP280;57147;53.582;10.112;2022-12-10T21:26:28;101113.25;;;-1.32
69857;BMP280;57147;53.582;10.112;2022-12-10T21:31:32;101111.78;;;-1.82
69857;BMP280;57147;53.582;10.112;2022-12-10T21:36:33;101097.81;;;-1.75
69857;BMP280;57147;53.582;10.112;2022-12-10T21:41:34;101119.97;;;-1.51
69857;BMP280;57147;53.582;10.112;2022-12-10T21:46:38;101120.22;;;-1.39
69857;BMP280;57147;53.582;10.112;2022-12-10T21:51:39;101125.28;;;-1.25
69857;BMP280;57147;53.582;10.112;2022-12-10T21:56:39;101116.44;;;-1.37
69857;BMP280;57147;53.582;10.112;2022-12-10T22:01:43;101113.25;;;-1.32
69857;BMP280;57147;53.582;10.112;2022-12-10T22:06:43;101118.88;;;-1.22
69857;BMP280;57147;53.582;10.112;2022-12-10T22:11:44;101107.03;;;-1.31
69857;BMP280;57147;53.582;10.112;2022-12-10T22:16:47;101112.47;;;-1.13
69857;BMP280;57147;53.582;10.112;2022-12-10T22:21:48;101103.84;;;-1.13
69857;BMP280;57147;53.582;10.112;2022-12-10T22:26:50;101117.06;;;-1.28
69857;BMP280;57147;53.582;10.112;2022-12-10T22:31:53;101116.44;;;-1.30
69857;BMP280;57147;53.582;10.112;2022-12-10T22:36:57;101110.03;;;-1.34
69857;BMP280;57147;53.582;10.112;2022-12-10T22:41:58;101102.97;;;-1.47
69857;BMP280;57147;53.582;10.112;2022-12-10T22:47:01;101115.19;;;-1.47
69857;BMP280;57147;53.582;10.112;2022-12-10T22:52:02;101117.69;;;-1.61
69857;BMP280;57147;53.582;10.112;2022-12-10T22:57:03;101109.97;;;-1.47
69857;BMP280;57147;53.582;10.112;2022-12-10T23:02:06;101116.00;;;-1.47
69857;BMP280;57147;53.582;10.112;2022-12-10T23:07:07;101113.19;;;-1.45
69857;BMP280;57147;53.582;10.112;2022-12-10T23:12:08;101107.50;;;-1.56
69857;BMP280;57147;53.582;10.112;2022-12-10T23:17:11;101049.56;;;-2.19
69857;BMP280;57147;53.582;10.112;2022-12-10T23:22:11;101099.03;;;-1.71
69857;BMP280;57147;53.582;10.112;2022-12-10T23:27:12;101101.28;;;-1.96
69857;BMP280;57147;53.582;10.112;2022-12-10T23:32:15;101068.44;;;-2.03
69857;BMP280;57147;53.582;10.112;2022-12-10T23:37:16;101098.56;;;-1.81
69857;BMP280;57147;53.582;10.112;2022-12-10T23:42:16;101090.16;;;-1.83
69857;BMP280;57147;53.582;10.112;2022-12-10T23:47:20;101083.34;;;-1.84
69857;BMP280;57147;53.582;10.112;2022-12-10T23:52:20;101091.03;;;-1.69
69857;BMP280;57147;53.582;10.112;2022-12-10T23:57:21;101079.66;;;-1.62
